sensor_id;sensor_type;location;lat;lon;timestamp;pressure;altitude;pressure_sealevel;temperature;humidity
39105;BME280;46464;51.154;13.812;2023-02-22T00:00:26;52434.03;;;-146.96;76.25
39105;BME280;46464;51.154;13.812;2023-02-22T00:05:36;52442.19;;;-146.96;76.45
39105;BME280;46464;51.154;13.812;2023-02-22T00:08:05;52409.63;;;-146.96;76.53
39105;BME280;46464;51.154;13.812;2023-02-22T00:10:39;52423.88;;;-146.96;76.66
39105;BME280;46464;51.154;13.812;2023-02-22T00:13:08;52432.00;;;-146.96;76.82
39105;BME280;46464;51.154;13.812;2023-02-22T00:15:35;52440.13;;;-146.96;76.82
39105;BME280;46464;51.154;13.812;2023-02-22T00:18:02;52393.34;;;-146.96;77.01
39105;BME280;46464;51.154;13.812;2023-02-22T00:20:29;52421.81;;;-146.96;77.22
39105;BME280;46464;51.154;13.812;2023-02-22T00:22:56;52440.13;;;-146.96;77.23
39105;BME280;46464;51.154;13.812;2023-02-22T00:25:23;52454.38;;;-146.96;77.21
39105;BME280;46464;51.154;13.812;2023-02-22T00:27:50;52429.97;;;-146.96;77.27
39105;BME280;46464;51.154;13.812;2023-02-22T00:30:26;52442.19;;;-146.96;77.26
39105;BME280;46464;51.154;13.812;2023-02-22T00:32:55;52393.34;;;-146.96;77.40
39105;BME280;46464;51.154;13.812;2023-02-22T00:35:25;52438.09;;;-146.96;77.39
39105;BME280;46464;51.154;13.812;2023-02-22T00:37:55;52423.88;;;-146.96;77.51
39105;BME280;46464;51.154;13.812;2023-02-22T00:40:25;52448.28;;;-146.96;77.62
39105;BME280;46464;51.154;13.812;2023-02-22T00:42:52;52460.50;;;-146.96;77.77
39105;BME280;46464;51.154;13.812;2023-02-22T00:45:23;52472.69;;;-146.96;77.90
39105;BME280;46464;51.154;13.812;2023-02-22T00:47:50;52450.31;;;-146.96;77.93
39105;BME280;46464;51.154;13.812;2023-02-22T00:50:17;52432.00;;;-146.96;78.08
39105;BME280;46464;51.154;13.812;2023-02-22T00:52:44;52448.28;;;-146.96;78.31
39105;BME280;46464;51.154;13.812;2023-02-22T00:55:16;52440.13;;;-146.96;78.16
39105;BME280;46464;51.154;13.812;2023-02-22T00:57:43;52454.38;;;-146.96;78.17
39105;BME280;46464;51.154;13.812;2023-02-22T01:00:16;52456.41;;;-146.96;78.35
39105;BME280;46464;51.154;13.812;2023-02-22T01:02:43;52438.09;;;-146.96;78.55
39105;BME280;46464;51.154;13.812;2023-02-22T01:05:11;52438.09;;;-146.96;78.56
39105;BME280;46464;51.154;13.812;2023-02-22T01:07:40;52474.72;;;-146.96;78.73
39105;BME280;46464;51.154;13.812;2023-02-22T01:10:07;52458.44;;;-146.96;78.71
39105;BME280;46464;51.154;13.812;2023-02-22T01:12:35;52413.69;;;-146.96;78.86
39105;BME280;46464;51.154;13.812;2023-02-22T01:15:03;52466.59;;;-146.96;79.09
39105;BME280;46464;51.154;13.812;2023-02-22T01:17:29;52460.50;;;-146.96;79.21
39105;BME280;46464;51.154;13.812;2023-02-22T01:19:56;52448.28;;;-146.96;79.44
39105;BME280;46464;51.154;13.812;2023-02-22T01:22:23;52474.72;;;-146.96;79.23
39105;BME280;46464;51.154;13.812;2023-02-22T01:24:50;52460.50;;;-146.96;79.46
39105;BME280;46464;51.154;13.812;2023-02-22T01:27:17;52403.50;;;-146.96;79.50
39105;BME280;46464;51.154;13.812;2023-02-22T01:29:43;52472.69;;;-146.96;79.54
39105;BME280;46464;51.154;13.812;2023-02-22T01:32:10;52462.53;;;-146.96;79.55
39105;BME280;46464;51.154;13.812;2023-02-22T01:34:37;52442.19;;;-146.96;79.61
39105;BME280;46464;51.154;13.812;2023-02-22T01:37:04;52403.50;;;-146.96;79.88
39105;BME280;46464;51.154;13.812;2023-02-22T01:39:32;52436.06;;;-146.96;79.88
39105;BME280;46464;51.154;13.812;2023-02-22T01:41:58;52436.06;;;-146.96;79.93
39105;BME280;46464;51.154;13.812;2023-02-22T01:44:31;52480.84;;;-146.96;79.89
39105;BME280;46464;51.154;13.812;2023-02-22T01:46:59;52472.69;;;-146.96;79.99
39105;BME280;46464;51.154;13.812;2023-02-22T01:49:31;52448.28;;;-146.96;80.05
39105;BME280;46464;51.154;13.812;2023-02-22T01:52:01;52423.88;;;-146.96;80.05
39105;BME280;46464;51.154;13.812;2023-02-22T01:54:38;52444.22;;;-146.96;80.05
39105;BME280;46464;51.154;13.812;2023-02-22T01:57:30;52403.50;;;-146.96;80.13
39105;BME280;46464;51.154;13.812;2023-02-22T02:00:07;52448.28;;;-146.96;80.25
39105;BME280;46464;51.154;13.812;2023-02-22T02:02:41;52464.56;;;-146.96;80.39
39105;BME280;46464;51.154;13.812;2023-02-22T02:05:09;52460.50;;;-146.96;80.35
39105;BME280;46464;51.154;13.812;2023-02-22T02:07:35;52466.59;;;-146.96;80.69
39105;BME280;46464;51.154;13.812;2023-02-22T02:10:08;52419.78;;;-146.96;80.77
39105;BME280;46464;51.154;13.812;2023-02-22T02:12:45;52389.28;;;-146.96;80.80
39105;BME280;46464;51.154;13.812;2023-02-22T02:15:17;52446.25;;;-146.96;80.72
39105;BME280;46464;51.154;13.812;2023-02-22T02:17:45;52452.34;;;-146.96;80.76
39105;BME280;46464;51.154;13.812;2023-02-22T02:20:34;52460.50;;;-146.96;80.95
39105;BME280;46464;51.154;13.812;2023-02-22T02:32:30;52411.66;;;-146.96;80.88
39105;BME280;46464;51.154;13.812;2023-02-22T02:35:12;52470.66;;;-146.96;80.99
39105;BME280;46464;51.154;13.812;2023-02-22T02:38:05;52442.19;;;-146.96;81.17
39105;BME280;46464;51.154;13.812;2023-02-22T02:40:46;52442.19;;;-146.96;81.67
39105;BME280;46464;51.154;13.812;2023-02-22T02:43:38;52462.53;;;-146.96;81.84
39105;BME280;46464;51.154;13.812;2023-02-22T02:46:13;52472.69;;;-146.96;82.35
39105;BME280;46464;51.154;13.812;2023-02-22T02:48:48;52450.31;;;-146.96;82.28
39105;BME280;46464;51.154;13.812;2023-02-22T02:51:18;52411.66;;;-146.96;82.55
39105;BME280;46464;51.154;13.812;2023-02-22T02:53:47;52413.69;;;-146.96;82.37
39105;BME280;46464;51.154;13.812;2023-02-22T02:56:14;52462.53;;;-146.96;82.43
39105;BME280;46464;51.154;13.812;2023-02-22T02:58:47;52432.00;;;-146.96;82.39
39105;BME280;46464;51.154;13.812;2023-02-22T03:01:23;52452.34;;;-146.96;82.34
39105;BME280;46464;51.154;13.812;2023-02-22T03:04:11;52448.28;;;-146.96;82.37
39105;BME280;46464;51.154;13.812;2023-02-22T03:06:46;52456.41;;;-146.96;82.56
39105;BME280;46464;51.154;13.812;2023-02-22T03:09:30;52476.75;;;-146.96;82.77
39105;BME280;46464;51.154;13.812;2023-02-22T03:12:31;52423.88;;;-146.96;82.99
39105;BME280;46464;51.154;13.812;2023-02-22T03:15:32;52448.28;;;-146.96;83.03
39105;BME280;46464;51.154;13.812;2023-02-22T03:18:08;52472.69;;;-146.96;83.12
39105;BME280;46464;51.154;13.812;2023-02-22T03:23:28;52454.38;;;-146.96;83.26
39105;BME280;46464;51.154;13.812;2023-02-22T03:26:04;52421.81;;;-146.96;83.54
39105;BME280;46464;51.154;13.812;2023-02-22T03:28:34;52421.81;;;-146.96;83.34
39105;BME280;46464;51.154;13.812;2023-02-22T03:31:15;52405.56;;;-146.96;83.64
39105;BME280;46464;51.154;13.812;2023-02-22T03:33:48;52423.88;;;-146.96;84.06
39105;BME280;46464;51.154;13.812;2023-02-22T03:36:38;52427.94;;;-146.96;84.14
39105;BME280;46464;51.154;13.812;2023-02-22T03:39:10;52458.44;;;-146.96;84.45
39105;BME280;46464;51.154;13.812;2023-02-22T03:41:44;52458.44;;;-146.96;84.61
39105;BME280;46464;51.154;13.812;2023-02-22T03:44:17;52460.50;;;-146.96;84.87
39105;BME280;46464;51.154;13.812;2023-02-22T03:46:47;52446.25;;;-146.96;84.91
39105;BME280;46464;51.154;13.812;2023-02-22T03:49:22;52436.06;;;-146.96;84.97
39105;BME280;46464;51.154;13.812;2023-02-22T03:51:50;52454.38;;;-146.96;85.05
39105;BME280;46464;51.154;13.812;2023-02-22T03:54:17;52458.44;;;-146.96;85.01
39105;BME280;46464;51.154;13.812;2023-02-22T03:56:47;52486.94;;;-146.96;84.83
39105;BME280;46464;51.154;13.812;2023-02-22T03:59:15;52454.38;;;-146.96;84.74
39105;BME280;46464;51.154;13.812;2023-02-22T04:01:43;52440.13;;;-146.96;84.87
39105;BME280;46464;51.154;13.812;2023-02-22T04:04:09;52440.13;;;-146.96;85.06
39105;BME280;46464;51.154;13.812;2023-02-22T04:06:36;52450.31;;;-146.96;84.89
39105;BME280;46464;51.154;13.812;2023-02-22T04:09:03;52423.88;;;-146.96;84.84
39105;BME280;46464;51.154;13.812;2023-02-22T04:11:29;52466.59;;;-146.96;84.77
39105;BME280;46464;51.154;13.812;2023-02-22T04:13:56;52427.94;;;-146.96;84.66
39105;BME280;46464;51.154;13.812;2023-02-22T04:16:23;52436.06;;;-146.96;84.77
39105;BME280;46464;51.154;13.812;2023-02-22T04:18:50;52438.09;;;-146.96;84.61
39105;BME280;46464;51.154;13.812;2023-02-22T04:21:19;52468.63;;;-146.96;84.34
39105;BME280;46464;51.154;13.812;2023-02-22T04:23:45;52454.38;;;-146.96;84.33
39105;BME280;46464;51.154;13.812;2023-02-22T04:26:12;52454.38;;;-146.96;84.30
39105;BME280;46464;51.154;13.812;2023-02-22T04:28:40;52458.44;;;-146.96;84.26
39105;BME280;46464;51.154;13.812;2023-02-22T04:31:07;52452.34;;;-146.96;84.28
39105;BME280;46464;51.154;13.812;2023-02-22T04:33:33;52444.22;;;-146.96;84.37
39105;BME280;46464;51.154;13.812;2023-02-22T04:36:00;52427.94;;;-146.96;84.34
39105;BME280;46464;51.154;13.812;2023-02-22T04:38:27;52452.34;;;-146.96;84.38
39105;BME280;46464;51.154;13.812;2023-02-22T04:40:54;52423.88;;;-146.96;84.40
39105;BME280;46464;51.154;13.812;2023-02-22T04:43:20;52427.94;;;-146.96;84.41
39105;BME280;46464;51.154;13.812;2023-02-22T04:45:47;52419.78;;;-146.96;84.41
39105;BME280;46464;51.154;13.812;2023-02-22T04:48:13;52444.22;;;-146.96;84.53
39105;BME280;46464;51.154;13.812;2023-02-22T04:50:40;52470.66;;;-146.96;84.36
39105;BME280;46464;51.154;13.812;2023-02-22T04:53:06;52480.84;;;-146.96;84.17
39105;BME280;46464;51.154;13.812;2023-02-22T04:55:33;52442.19;;;-146.96;84.33
39105;BME280;46464;51.154;13.812;2023-02-22T04:58:01;52405.56;;;-146.96;84.57
39105;BME280;46464;51.154;13.812;2023-02-22T05:00:27;52456.41;;;-146.96;84.72
39105;BME280;46464;51.154;13.812;2023-02-22T05:02:54;52438.09;;;-146.96;84.84
39105;BME280;46464;51.154;13.812;2023-02-22T05:05:21;52466.59;;;-146.96;84.89
39105;BME280;46464;51.154;13.812;2023-02-22T05:07:48;52456.41;;;-146.96;85.04
39105;BME280;46464;51.154;13.812;2023-02-22T05:10:15;52493.03;;;-146.96;85.12
39105;BME280;46464;51.154;13.812;2023-02-22T05:12:42;52486.94;;;-146.96;85.33
39105;BME280;46464;51.154;13.812;2023-02-22T05:15:09;52444.22;;;-146.96;85.33
39105;BME280;46464;51.154;13.812;2023-02-22T05:17:35;52454.38;;;-146.96;85.51
39105;BME280;46464;51.154;13.812;2023-02-22T05:20:03;52480.84;;;-146.96;86.12
39105;BME280;46464;51.154;13.812;2023-02-22T05:22:30;52454.38;;;-146.96;86.22
39105;BME280;46464;51.154;13.812;2023-02-22T05:24:57;52432.00;;;-146.96;86.26
39105;BME280;46464;51.154;13.812;2023-02-22T05:27:23;52468.63;;;-146.96;86.19
39105;BME280;46464;51.154;13.812;2023-02-22T05:29:50;52505.25;;;-146.96;86.32
39105;BME280;46464;51.154;13.812;2023-02-22T05:32:16;52444.22;;;-146.96;86.46
39105;BME280;46464;51.154;13.812;2023-02-22T05:34:43;52493.03;;;-146.96;86.54
39105;BME280;46464;51.154;13.812;2023-02-22T05:37:11;52409.63;;;-146.96;86.58
39105;BME280;46464;51.154;13.812;2023-02-22T05:39:37;52454.38;;;-146.96;86.71
39105;BME280;46464;51.154;13.812;2023-02-22T05:42:04;52462.53;;;-146.96;86.85
39105;BME280;46464;51.154;13.812;2023-02-22T05:44:30;52448.28;;;-146.96;86.83
39105;BME280;46464;51.154;13.812;2023-02-22T05:46:57;52478.81;;;-146.96;86.82
39105;BME280;46464;51.154;13.812;2023-02-22T05:49:23;52464.56;;;-146.96;86.74
39105;BME280;46464;51.154;13.812;2023-02-22T05:51:50;52448.28;;;-146.96;86.78
39105;BME280;46464;51.154;13.812;2023-02-22T05:54:17;52448.28;;;-146.96;86.78
39105;BME280;46464;51.154;13.812;2023-02-22T05:56:43;52486.94;;;-146.96;86.79
39105;BME280;46464;51.154;13.812;2023-02-22T05:59:09;52458.44;;;-146.96;86.66
39105;BME280;46464;51.154;13.812;2023-02-22T06:01:36;52470.66;;;-146.96;86.61
39105;BME280;46464;51.154;13.812;2023-02-22T06:04:02;52464.56;;;-146.96;86.50
39105;BME280;46464;51.154;13.812;2023-02-22T06:06:29;52466.59;;;-146.96;86.62
39105;BME280;46464;51.154;13.812;2023-02-22T06:08:56;52446.25;;;-146.96;86.57
39105;BME280;46464;51.154;13.812;2023-02-22T06:11:22;52470.66;;;-146.96;86.57
39105;BME280;46464;51.154;13.812;2023-02-22T06:13:51;52491.00;;;-146.96;86.59
39105;BME280;46464;51.154;13.812;2023-02-22T06:16:20;52444.22;;;-146.96;86.77
39105;BME280;46464;51.154;13.812;2023-02-22T06:18:47;52448.28;;;-146.96;86.56
39105;BME280;46464;51.154;13.812;2023-02-22T06:21:14;52458.44;;;-146.96;86.51
39105;BME280;46464;51.154;13.812;2023-02-22T06:23:44;52454.38;;;-146.96;86.65
39105;BME280;46464;51.154;13.812;2023-02-22T06:26:15;52442.19;;;-146.96;86.57
39105;BME280;46464;51.154;13.812;2023-02-22T06:28:42;52454.38;;;-146.96;86.68
39105;BME280;46464;51.154;13.812;2023-02-22T06:31:08;52442.19;;;-146.96;86.71
39105;BME280;46464;51.154;13.812;2023-02-22T06:33:35;52458.44;;;-146.96;86.91
39105;BME280;46464;51.154;13.812;2023-02-22T06:36:02;52452.34;;;-146.96;86.93
39105;BME280;46464;51.154;13.812;2023-02-22T06:38:28;52464.56;;;-146.96;86.96
39105;BME280;46464;51.154;13.812;2023-02-22T06:40:55;52486.94;;;-146.96;86.93
39105;BME280;46464;51.154;13.812;2023-02-22T06:43:22;52427.94;;;-146.96;86.97
39105;BME280;46464;51.154;13.812;2023-02-22T06:45:50;52452.34;;;-146.96;87.04
39105;BME280;46464;51.154;13.812;2023-02-22T06:48:17;52458.44;;;-146.96;87.04
39105;BME280;46464;51.154;13.812;2023-02-22T06:50:44;52427.94;;;-146.96;87.03
39105;BME280;46464;51.154;13.812;2023-02-22T06:53:10;52488.97;;;-146.96;87.15
39105;BME280;46464;51.154;13.812;2023-02-22T06:55:39;52462.53;;;-146.96;87.29
39105;BME280;46464;51.154;13.812;2023-02-22T06:58:06;52448.28;;;-146.96;87.32
39105;BME280;46464;51.154;13.812;2023-02-22T07:00:32;52432.00;;;-146.96;87.21
39105;BME280;46464;51.154;13.812;2023-02-22T07:02:59;52446.25;;;-146.96;87.19
39105;BME280;46464;51.154;13.812;2023-02-22T07:05:26;52429.97;;;-146.96;87.18
39105;BME280;46464;51.154;13.812;2023-02-22T07:07:59;52442.19;;;-146.96;87.10
39105;BME280;46464;51.154;13.812;2023-02-22T07:10:28;52462.53;;;-146.96;87.20
39105;BME280;46464;51.154;13.812;2023-02-22T07:12:55;52488.97;;;-146.96;87.15
39105;BME280;46464;51.154;13.812;2023-02-22T07:15:26;52466.59;;;-146.96;87.31
39105;BME280;46464;51.154;13.812;2023-02-22T07:17:53;52448.28;;;-146.96;87.44
39105;BME280;46464;51.154;13.812;2023-02-22T07:20:21;52442.19;;;-146.96;87.50
39105;BME280;46464;51.154;13.812;2023-02-22T07:22:48;52444.22;;;-146.96;87.53
39105;BME280;46464;51.154;13.812;2023-02-22T07:25:15;52436.06;;;-146.96;87.55
39105;BME280;46464;51.154;13.812;2023-02-22T07:27:41;52474.72;;;-146.96;87.53
39105;BME280;46464;51.154;13.812;2023-02-22T07:32:43;52448.28;;;-146.96;87.60
39105;BME280;46464;51.154;13.812;2023-02-22T07:35:23;52478.81;;;-146.96;87.66
39105;BME280;46464;51.154;13.812;2023-02-22T07:37:50;52436.06;;;-146.96;87.07
39105;BME280;46464;51.154;13.812;2023-02-22T07:40:20;52436.06;;;-146.96;86.98
39105;BME280;46464;51.154;13.812;2023-02-22T07:45:39;52450.31;;;-146.96;86.54
39105;BME280;46464;51.154;13.812;2023-02-22T07:48:06;52438.09;;;-146.96;86.36
39105;BME280;46464;51.154;13.812;2023-02-22T07:50:33;52432.00;;;-146.96;86.42
39105;BME280;46464;51.154;13.812;2023-02-22T07:53:06;52417.75;;;-146.96;86.67
39105;BME280;46464;51.154;13.812;2023-02-22T07:55:33;52466.59;;;-146.96;86.56
39105;BME280;46464;51.154;13.812;2023-02-22T07:58:02;52411.66;;;-146.96;85.92
39105;BME280;46464;51.154;13.812;2023-02-22T08:00:32;52450.31;;;-146.96;85.34
39105;BME280;46464;51.154;13.812;2023-02-22T08:03:01;52442.19;;;-146.96;85.40
39105;BME280;46464;51.154;13.812;2023-02-22T08:05:33;52440.13;;;-146.96;85.43
39105;BME280;46464;51.154;13.812;2023-02-22T08:08:12;52405.56;;;-146.96;85.42
39105;BME280;46464;51.154;13.812;2023-02-22T08:10:52;52438.09;;;-146.96;85.32
39105;BME280;46464;51.154;13.812;2023-02-22T08:13:20;52440.13;;;-146.96;85.65
39105;BME280;46464;51.154;13.812;2023-02-22T08:15:52;52429.97;;;-146.96;85.49
39105;BME280;46464;51.154;13.812;2023-02-22T08:18:21;52423.88;;;-146.96;85.67
39105;BME280;46464;51.154;13.812;2023-02-22T08:20:52;52440.13;;;-146.96;85.75
39105;BME280;46464;51.154;13.812;2023-02-22T08:23:22;52429.97;;;-146.96;85.73
39105;BME280;46464;51.154;13.812;2023-02-22T08:25:50;52446.25;;;-146.96;85.63
39105;BME280;46464;51.154;13.812;2023-02-22T08:28:19;52429.97;;;-146.96;85.65
39105;BME280;46464;51.154;13.812;2023-02-22T08:30:51;52448.28;;;-146.96;85.53
39105;BME280;46464;51.154;13.812;2023-02-22T08:33:17;52458.44;;;-146.96;85.46
39105;BME280;46464;51.154;13.812;2023-02-22T08:35:46;52413.69;;;-146.96;85.14
39105;BME280;46464;51.154;13.812;2023-02-22T08:38:21;52411.66;;;-146.96;85.24
39105;BME280;46464;51.154;13.812;2023-02-22T08:40:48;52381.13;;;-146.96;84.30
39105;BME280;46464;51.154;13.812;2023-02-22T08:43:19;52411.66;;;-146.96;83.95
39105;BME280;46464;51.154;13.812;2023-02-22T08:45:46;52389.28;;;-146.96;84.16
39105;BME280;46464;51.154;13.812;2023-02-22T08:48:14;52377.06;;;-146.96;84.19
39105;BME280;46464;51.154;13.812;2023-02-22T08:50:41;52375.03;;;-146.96;83.81
39105;BME280;46464;51.154;13.812;2023-02-22T08:53:10;52417.75;;;-146.96;83.97
39105;BME280;46464;51.154;13.812;2023-02-22T08:55:39;52409.63;;;-146.96;83.56
39105;BME280;46464;51.154;13.812;2023-02-22T08:58:07;52415.72;;;-146.96;82.97
39105;BME280;46464;51.154;13.812;2023-02-22T09:00:38;52444.22;;;-146.96;82.82
39105;BME280;46464;51.154;13.812;2023-02-22T09:03:08;52432.00;;;-146.96;82.60
39105;BME280;46464;51.154;13.812;2023-02-22T09:05:35;52360.78;;;-146.96;82.48
39105;BME280;46464;51.154;13.812;2023-02-22T09:08:02;52375.03;;;-146.96;81.75
39105;BME280;46464;51.154;13.812;2023-02-22T09:10:31;52344.50;;;-146.96;81.13
39105;BME280;46464;51.154;13.812;2023-02-22T09:12:58;52387.22;;;-146.96;80.77
39105;BME280;46464;51.154;13.812;2023-02-22T09:15:27;52360.78;;;-146.96;80.63
39105;BME280;46464;51.154;13.812;2023-02-22T09:17:54;52368.94;;;-146.96;80.19
39105;BME280;46464;51.154;13.812;2023-02-22T09:20:24;52409.63;;;-146.96;79.59
39105;BME280;46464;51.154;13.812;2023-02-22T09:22:52;52368.94;;;-146.96;79.54
39105;BME280;46464;51.154;13.812;2023-02-22T09:25:21;52383.16;;;-146.96;79.02
39105;BME280;46464;51.154;13.812;2023-02-22T09:27:52;52364.84;;;-146.96;78.74
39105;BME280;46464;51.154;13.812;2023-02-22T09:30:25;52350.59;;;-146.96;77.65
39105;BME280;46464;51.154;13.812;2023-02-22T09:32:58;52383.16;;;-146.96;77.29
39105;BME280;46464;51.154;13.812;2023-02-22T09:35:25;52373.00;;;-146.96;76.85
39105;BME280;46464;51.154;13.812;2023-02-22T09:37:56;52362.81;;;-146.96;76.72
39105;BME280;46464;51.154;13.812;2023-02-22T09:40:25;52379.09;;;-146.96;76.74
39105;BME280;46464;51.154;13.812;2023-02-22T09:43:07;52368.94;;;-146.96;76.31
39105;BME280;46464;51.154;13.812;2023-02-22T09:45:56;52366.88;;;-146.96;75.91
39105;BME280;46464;51.154;13.812;2023-02-22T09:48:30;52354.69;;;-146.96;75.63
39105;BME280;46464;51.154;13.812;2023-02-22T09:51:02;52348.56;;;-146.96;74.98
39105;BME280;46464;51.154;13.812;2023-02-22T09:53:41;52354.69;;;-146.96;75.25
39105;BME280;46464;51.154;13.812;2023-02-22T09:56:11;52346.53;;;-146.96;74.94
39105;BME280;46464;51.154;13.812;2023-02-22T09:58:48;52330.25;;;-146.96;75.37
39105;BME280;46464;51.154;13.812;2023-02-22T10:01:28;52383.16;;;-146.96;75.20
39105;BME280;46464;51.154;13.812;2023-02-22T10:04:10;52348.56;;;-146.96;73.69
39105;BME280;46464;51.154;13.812;2023-02-22T10:06:42;52322.13;;;-146.96;73.76
39105;BME280;46464;51.154;13.812;2023-02-22T10:09:13;52340.44;;;-146.96;74.42
39105;BME280;46464;51.154;13.812;2023-02-22T10:11:59;52328.22;;;-146.96;74.36
39105;BME280;46464;51.154;13.812;2023-02-22T10:14:41;52313.97;;;-146.96;74.28
39105;BME280;46464;51.154;13.812;2023-02-22T10:20:29;52330.25;;;-146.96;73.59
39105;BME280;46464;51.154;13.812;2023-02-22T10:23:11;52318.06;;;-146.96;72.33
39105;BME280;46464;51.154;13.812;2023-02-22T10:25:41;52318.06;;;-146.96;73.03
39105;BME280;46464;51.154;13.812;2023-02-22T10:28:16;52330.25;;;-146.96;73.29
39105;BME280;46464;51.154;13.812;2023-02-22T10:30:53;52342.47;;;-146.96;72.57
39105;BME280;46464;51.154;13.812;2023-02-22T10:33:25;52318.06;;;-146.96;72.06
39105;BME280;46464;51.154;13.812;2023-02-22T10:35:55;52342.47;;;-146.96;71.78
39105;BME280;46464;51.154;13.812;2023-02-22T10:38:22;52320.09;;;-146.96;71.80
39105;BME280;46464;51.154;13.812;2023-02-22T10:43:22;52352.66;;;-146.96;71.69
39105;BME280;46464;51.154;13.812;2023-02-22T10:45:52;52301.78;;;-146.96;72.26
39105;BME280;46464;51.154;13.812;2023-02-22T10:48:23;52330.25;;;-146.96;72.26
39105;BME280;46464;51.154;13.812;2023-02-22T10:50:53;52328.22;;;-146.96;72.68
39105;BME280;46464;51.154;13.812;2023-02-22T10:53:26;52362.81;;;-146.96;72.22
39105;BME280;46464;51.154;13.812;2023-02-22T10:56:12;52332.28;;;-146.96;72.42
39105;BME280;46464;51.154;13.812;2023-02-22T10:58:55;52336.38;;;-146.96;72.58
39105;BME280;46464;51.154;13.812;2023-02-22T11:01:35;52350.59;;;-146.96;72.58
39105;BME280;46464;51.154;13.812;2023-02-22T11:04:15;52320.09;;;-146.96;72.58
39105;BME280;46464;51.154;13.812;2023-02-22T11:06:45;52289.56;;;-146.96;72.70
39105;BME280;46464;51.154;13.812;2023-02-22T11:09:16;52311.94;;;-146.96;73.00
39105;BME280;46464;51.154;13.812;2023-02-22T11:11:46;52338.41;;;-146.96;73.12
39105;BME280;46464;51.154;13.812;2023-02-22T11:14:25;52324.16;;;-146.96;72.84
39105;BME280;46464;51.154;13.812;2023-02-22T11:16:57;52340.44;;;-146.96;72.20
39105;BME280;46464;51.154;13.812;2023-02-22T11:19:26;52309.91;;;-146.96;72.45
39105;BME280;46464;51.154;13.812;2023-02-22T11:22:09;52346.53;;;-146.96;72.25
39105;BME280;46464;51.154;13.812;2023-02-22T11:24:54;52307.88;;;-146.96;72.37
39105;BME280;46464;51.154;13.812;2023-02-22T11:27:30;52332.28;;;-146.96;72.67
39105;BME280;46464;51.154;13.812;2023-02-22T11:30:26;52338.41;;;-146.96;72.08
39105;BME280;46464;51.154;13.812;2023-02-22T11:33:20;52318.06;;;-146.96;71.77
39105;BME280;46464;51.154;13.812;2023-02-22T11:35:56;52289.56;;;-146.96;71.67
39105;BME280;46464;51.154;13.812;2023-02-22T11:38:34;52342.47;;;-146.96;71.90
39105;BME280;46464;51.154;13.812;2023-02-22T11:43:31;52311.94;;;-146.96;70.90
39105;BME280;46464;51.154;13.812;2023-02-22T11:48:32;52332.28;;;-146.96;70.99
39105;BME280;46464;51.154;13.812;2023-02-22T11:54:18;52334.34;;;-146.96;70.22
39105;BME280;46464;51.154;13.812;2023-02-22T12:00:06;52309.91;;;-146.96;70.08
39105;BME280;46464;51.154;13.812;2023-02-22T12:02:55;52301.78;;;-146.96;69.78
39105;BME280;46464;51.154;13.812;2023-02-22T12:11:16;52293.63;;;-146.96;69.00
39105;BME280;46464;51.154;13.812;2023-02-22T12:14:00;52322.13;;;-146.96;67.78
39105;BME280;46464;51.154;13.812;2023-02-22T12:16:50;52299.75;;;-146.96;67.35
39105;BME280;46464;51.154;13.812;2023-02-22T12:19:33;52283.47;;;-146.96;67.12
39105;BME280;46464;51.154;13.812;2023-02-22T12:22:09;52289.56;;;-146.96;66.09
39105;BME280;46464;51.154;13.812;2023-02-22T12:24:41;52293.63;;;-146.96;65.79
39105;BME280;46464;51.154;13.812;2023-02-22T12:27:16;52257.00;;;-146.96;65.56
39105;BME280;46464;51.154;13.812;2023-02-22T12:29:53;52311.94;;;-146.96;65.92
39105;BME280;46464;51.154;13.812;2023-02-22T12:32:37;52299.75;;;-146.96;65.54
39105;BME280;46464;51.154;13.812;2023-02-22T12:38:15;52301.78;;;-146.96;64.73
39105;BME280;46464;51.154;13.812;2023-02-22T12:43:45;52281.44;;;-146.96;65.23
39105;BME280;46464;51.154;13.812;2023-02-22T12:46:15;52326.19;;;-146.96;65.20
39105;BME280;46464;51.154;13.812;2023-02-22T12:49:09;52257.00;;;-146.96;65.11
39105;BME280;46464;51.154;13.812;2023-02-22T12:52:00;52271.25;;;-146.96;64.40
39105;BME280;46464;51.154;13.812;2023-02-22T12:55:03;52285.50;;;-146.96;63.97
39105;BME280;46464;51.154;13.812;2023-02-22T12:57:40;52299.75;;;-146.96;64.08
39105;BME280;46464;51.154;13.812;2023-02-22T13:00:26;52299.75;;;-146.96;64.84
39105;BME280;46464;51.154;13.812;2023-02-22T13:03:04;52254.97;;;-146.96;65.29
39105;BME280;46464;51.154;13.812;2023-02-22T13:05:38;52277.34;;;-146.96;65.42
39105;BME280;46464;51.154;13.812;2023-02-22T13:11:06;52332.28;;;-146.96;66.03
39105;BME280;46464;51.154;13.812;2023-02-22T13:13:42;52293.63;;;-146.96;66.23
39105;BME280;46464;51.154;13.812;2023-02-22T13:16:26;52305.84;;;-146.96;66.30
39105;BME280;46464;51.154;13.812;2023-02-22T13:21:59;52301.78;;;-146.96;67.21
39105;BME280;46464;51.154;13.812;2023-02-22T13:24:45;52240.75;;;-146.96;67.21
39105;BME280;46464;51.154;13.812;2023-02-22T13:27:22;52279.41;;;-146.96;67.48
39105;BME280;46464;51.154;13.812;2023-02-22T13:29:57;52265.16;;;-146.96;67.48
39105;BME280;46464;51.154;13.812;2023-02-22T13:32:32;52326.19;;;-146.96;67.97
39105;BME280;46464;51.154;13.812;2023-02-22T13:40:51;52275.31;;;-146.96;68.44
39105;BME280;46464;51.154;13.812;2023-02-22T13:51:51;52291.59;;;-146.96;69.72
39105;BME280;46464;51.154;13.812;2023-02-22T13:54:43;52299.75;;;-146.96;69.86
39105;BME280;46464;51.154;13.812;2023-02-22T13:59:44;52277.34;;;-146.96;69.78
39105;BME280;46464;51.154;13.812;2023-02-22T14:02:55;52309.91;;;-146.96;69.69
39105;BME280;46464;51.154;13.812;2023-02-22T14:13:28;52309.91;;;-146.96;69.94